sensor_id;sensor_type;location;lat;lon;timestamp;temperature;humidity
45339;DHT22;31071;51.478;5.710;2023-05-10T00:01:21;12.90;99.90
45339;DHT22;31071;51.478;5.710;2023-05-10T00:03:46;12.90;99.90
45339;DHT22;31071;51.478;5.710;2023-05-10T00:06:12;12.90;99.90
45339;DHT22;31071;51.478;5.710;2023-05-10T00:08:37;12.90;99.90
45339;DHT22;31071;51.478;5.710;2023-05-10T00:11:03;12.90;99.90
45339;DHT22;31071;51.478;5.710;2023-05-10T00:13:28;12.80;99.90
45339;DHT22;31071;51.478;5.710;2023-05-10T00:15:54;12.80;99.90
45339;DHT22;31071;51.478;5.710;2023-05-10T00:18:19;12.80;99.90
45339;DHT22;31071;51.478;5.710;2023-05-10T00:20:45;12.80;99.90
45339;DHT22;31071;51.478;5.710;2023-05-10T00:23:11;12.80;99.90
45339;DHT22;31071;51.478;5.710;2023-05-10T00:25:37;12.80;99.90
45339;DHT22;31071;51.478;5.710;2023-05-10T00:28:02;12.70;99.90
45339;DHT22;31071;51.478;5.710;2023-05-10T00:30:28;12.80;99.90
45339;DHT22;31071;51.478;5.710;2023-05-10T00:32:53;12.80;99.90
45339;DHT22;31071;51.478;5.710;2023-05-10T00:35:19;12.80;99.90
45339;DHT22;31071;51.478;5.710;2023-05-10T00:37:45;12.80;99.90
45339;DHT22;31071;51.478;5.710;2023-05-10T00:40:11;12.80;99.90
45339;DHT22;31071;51.478;5.710;2023-05-10T00:42:36;12.80;99.90
45339;DHT22;31071;51.478;5.710;2023-05-10T00:45:02;12.80;99.90
45339;DHT22;31071;51.478;5.710;2023-05-10T00:47:28;12.80;99.90
45339;DHT22;31071;51.478;5.710;2023-05-10T00:49:54;12.80;99.90
45339;DHT22;31071;51.478;5.710;2023-05-10T00:52:21;12.70;99.90
45339;DHT22;31071;51.478;5.710;2023-05-10T00:54:49;12.80;99.90
45339;DHT22;31071;51.478;5.710;2023-05-10T00:57:14;12.70;99.90
45339;DHT22;31071;51.478;5.710;2023-05-10T00:59:40;12.70;99.90
45339;DHT22;31071;51.478;5.710;2023-05-10T01:02:06;12.70;99.90
45339;DHT22;31071;51.478;5.710;2023-05-10T01:04:32;12.70;99.90
45339;DHT22;31071;51.478;5.710;2023-05-10T01:06:58;12.70;99.90
45339;DHT22;31071;51.478;5.710;2023-05-10T01:09:24;12.70;99.90
45339;DHT22;31071;51.478;5.710;2023-05-10T01:11:51;12.70;99.90
45339;DHT22;31071;51.478;5.710;2023-05-10T01:14:19;12.70;99.90
45339;DHT22;31071;51.478;5.710;2023-05-10T01:16:46;12.80;99.90
45339;DHT22;31071;51.478;5.710;2023-05-10T01:19:28;12.80;99.90
45339;DHT22;31071;51.478;5.710;2023-05-10T01:22:24;12.80;99.90
45339;DHT22;31071;51.478;5.710;2023-05-10T01:30:44;12.70;99.90
45339;DHT22;31071;51.478;5.710;2023-05-10T01:36:23;12.60;99.90
45339;DHT22;31071;51.478;5.710;2023-05-10T01:39:11;12.60;99.90
45339;DHT22;31071;51.478;5.710;2023-05-10T01:46:38;12.70;99.90
45339;DHT22;31071;51.478;5.710;2023-05-10T01:49:09;12.70;99.90
45339;DHT22;31071;51.478;5.710;2023-05-10T01:51:50;12.70;99.90
45339;DHT22;31071;51.478;5.710;2023-05-10T01:54:19;12.80;99.90
45339;DHT22;31071;51.478;5.710;2023-05-10T01:56:48;12.80;99.90
45339;DHT22;31071;51.478;5.710;2023-05-10T01:59:17;12.80;99.90
45339;DHT22;31071;51.478;5.710;2023-05-10T02:01:45;12.80;99.90
45339;DHT22;31071;51.478;5.710;2023-05-10T02:04:14;12.90;99.90
45339;DHT22;31071;51.478;5.710;2023-05-10T02:06:42;12.90;99.90
45339;DHT22;31071;51.478;5.710;2023-05-10T02:09:09;12.90;99.90
45339;DHT22;31071;51.478;5.710;2023-05-10T02:11:38;12.90;99.90
45339;DHT22;31071;51.478;5.710;2023-05-10T02:14:06;13.00;99.90
45339;DHT22;31071;51.478;5.710;2023-05-10T02:16:35;12.90;99.90
45339;DHT22;31071;51.478;5.710;2023-05-10T02:19:02;12.90;99.90
45339;DHT22;31071;51.478;5.710;2023-05-10T02:21:29;12.90;99.90
45339;DHT22;31071;51.478;5.710;2023-05-10T02:23:57;12.90;99.90
45339;DHT22;31071;51.478;5.710;2023-05-10T02:26:23;12.90;99.90
45339;DHT22;31071;51.478;5.710;2023-05-10T02:28:51;13.00;99.90
45339;DHT22;31071;51.478;5.710;2023-05-10T02:31:18;13.10;99.90
45339;DHT22;31071;51.478;5.710;2023-05-10T02:33:44;13.10;99.90
45339;DHT22;31071;51.478;5.710;2023-05-10T02:36:12;13.10;99.90
45339;DHT22;31071;51.478;5.710;2023-05-10T02:38:38;13.00;99.90
45339;DHT22;31071;51.478;5.710;2023-05-10T02:41:05;13.10;99.90
45339;DHT22;31071;51.478;5.710;2023-05-10T02:43:33;13.10;99.90
45339;DHT22;31071;51.478;5.710;2023-05-10T02:46:00;13.00;99.90
45339;DHT22;31071;51.478;5.710;2023-05-10T02:48:26;13.00;99.90
45339;DHT22;31071;51.478;5.710;2023-05-10T02:50:54;13.10;99.90
45339;DHT22;31071;51.478;5.710;2023-05-10T02:53:23;13.10;99.90
45339;DHT22;31071;51.478;5.710;2023-05-10T02:55:55;13.10;99.90
45339;DHT22;31071;51.478;5.710;2023-05-10T02:58:24;13.10;99.90
45339;DHT22;31071;51.478;5.710;2023-05-10T03:00:49;13.10;99.90
45339;DHT22;31071;51.478;5.710;2023-05-10T03:03:15;13.10;99.90
45339;DHT22;31071;51.478;5.710;2023-05-10T03:05:41;13.10;99.90
45339;DHT22;31071;51.478;5.710;2023-05-10T03:08:06;13.10;99.90
45339;DHT22;31071;51.478;5.710;2023-05-10T03:10:33;13.10;99.90
45339;DHT22;31071;51.478;5.710;2023-05-10T03:13:16;13.10;99.90
45339;DHT22;31071;51.478;5.710;2023-05-10T03:15:58;13.10;99.90
45339;DHT22;31071;51.478;5.710;2023-05-10T03:18:42;13.00;99.90
45339;DHT22;31071;51.478;5.710;2023-05-10T03:21:11;13.00;99.90
45339;DHT22;31071;51.478;5.710;2023-05-10T03:23:47;13.00;99.90
45339;DHT22;31071;51.478;5.710;2023-05-10T03:26:17;13.00;99.90
45339;DHT22;31071;51.478;5.710;2023-05-10T03:28:43;13.00;99.90
45339;DHT22;31071;51.478;5.710;2023-05-10T03:31:10;13.00;99.90
45339;DHT22;31071;51.478;5.710;2023-05-10T03:33:36;13.00;99.90
45339;DHT22;31071;51.478;5.710;2023-05-10T03:36:10;13.00;99.90
45339;DHT22;31071;51.478;5.710;2023-05-10T03:38:36;13.00;99.90
45339;DHT22;31071;51.478;5.710;2023-05-10T03:41:01;13.00;99.90
45339;DHT22;31071;51.478;5.710;2023-05-10T03:43:27;12.90;99.90
45339;DHT22;31071;51.478;5.710;2023-05-10T03:45:52;12.90;99.90
45339;DHT22;31071;51.478;5.710;2023-05-10T03:48:18;12.90;99.90
45339;DHT22;31071;51.478;5.710;2023-05-10T03:50:43;12.90;99.90
45339;DHT22;31071;51.478;5.710;2023-05-10T03:53:09;12.90;99.90
45339;DHT22;31071;51.478;5.710;2023-05-10T03:55:34;12.90;99.90
45339;DHT22;31071;51.478;5.710;2023-05-10T03:58:01;13.00;99.90
45339;DHT22;31071;51.478;5.710;2023-05-10T04:00:27;13.00;99.90
45339;DHT22;31071;51.478;5.710;2023-05-10T04:02:52;13.00;99.90
45339;DHT22;31071;51.478;5.710;2023-05-10T04:05:18;13.00;99.90
45339;DHT22;31071;51.478;5.710;2023-05-10T04:07:43;12.90;99.90
45339;DHT22;31071;51.478;5.710;2023-05-10T04:10:10;13.00;99.90
45339;DHT22;31071;51.478;5.710;2023-05-10T04:12:35;13.00;99.90
45339;DHT22;31071;51.478;5.710;2023-05-10T04:15:01;13.00;99.90
45339;DHT22;31071;51.478;5.710;2023-05-10T04:17:26;12.90;99.90
45339;DHT22;31071;51.478;5.710;2023-05-10T04:19:52;13.00;99.90
45339;DHT22;31071;51.478;5.710;2023-05-10T04:22:20;13.00;99.90
45339;DHT22;31071;51.478;5.710;2023-05-10T04:24:45;12.90;99.90
45339;DHT22;31071;51.478;5.710;2023-05-10T04:27:11;12.90;99.90
45339;DHT22;31071;51.478;5.710;2023-05-10T04:29:36;12.90;99.90
45339;DHT22;31071;51.478;5.710;2023-05-10T04:32:03;13.00;99.90
45339;DHT22;31071;51.478;5.710;2023-05-10T04:34:29;13.00;99.90
45339;DHT22;31071;51.478;5.710;2023-05-10T04:36:54;13.00;99.90
45339;DHT22;31071;51.478;5.710;2023-05-10T04:39:20;13.00;99.90
45339;DHT22;31071;51.478;5.710;2023-05-10T04:41:46;13.00;99.90
45339;DHT22;31071;51.478;5.710;2023-05-10T04:44:11;12.10;99.90
45339;DHT22;31071;51.478;5.710;2023-05-10T04:46:37;13.00;99.90
45339;DHT22;31071;51.478;5.710;2023-05-10T04:49:02;13.00;99.90
45339;DHT22;31071;51.478;5.710;2023-05-10T04:51:28;13.00;99.90
45339;DHT22;31071;51.478;5.710;2023-05-10T04:53:53;13.00;99.90
45339;DHT22;31071;51.478;5.710;2023-05-10T04:56:19;13.80;99.90
45339;DHT22;31071;51.478;5.710;2023-05-10T04:58:44;13.00;99.90
45339;DHT22;31071;51.478;5.710;2023-05-10T05:01:10;13.00;99.90
45339;DHT22;31071;51.478;5.710;2023-05-10T05:03:36;13.10;99.90
45339;DHT22;31071;51.478;5.710;2023-05-10T05:06:02;13.00;99.90
45339;DHT22;31071;51.478;5.710;2023-05-10T05:08:28;13.00;99.90
45339;DHT22;31071;51.478;5.710;2023-05-10T05:10:53;13.00;99.90
45339;DHT22;31071;51.478;5.710;2023-05-10T05:13:19;13.00;99.90
45339;DHT22;31071;51.478;5.710;2023-05-10T05:15:45;13.00;99.90
45339;DHT22;31071;51.478;5.710;2023-05-10T05:18:10;13.00;99.90
45339;DHT22;31071;51.478;5.710;2023-05-10T05:20:36;13.00;99.90
45339;DHT22;31071;51.478;5.710;2023-05-10T05:23:02;13.00;99.90
45339;DHT22;31071;51.478;5.710;2023-05-10T05:25:27;13.00;99.90
45339;DHT22;31071;51.478;5.710;2023-05-10T05:28:05;12.90;99.90
45339;DHT22;31071;51.478;5.710;2023-05-10T05:30:31;12.90;99.90
45339;DHT22;31071;51.478;5.710;2023-05-10T05:32:56;13.70;99.90
45339;DHT22;31071;51.478;5.710;2023-05-10T05:35:22;13.00;99.90
45339;DHT22;31071;51.478;5.710;2023-05-10T05:37:48;12.90;99.90
45339;DHT22;31071;51.478;5.710;2023-05-10T05:40:13;12.90;99.90
45339;DHT22;31071;51.478;5.710;2023-05-10T05:42:39;12.80;99.90
45339;DHT22;31071;51.478;5.710;2023-05-10T05:45:05;12.90;99.90
45339;DHT22;31071;51.478;5.710;2023-05-10T05:47:31;12.90;99.90
45339;DHT22;31071;51.478;5.710;2023-05-10T05:49:56;13.00;99.90
45339;DHT22;31071;51.478;5.710;2023-05-10T05:52:22;13.10;99.90
45339;DHT22;31071;51.478;5.710;2023-05-10T05:54:47;13.10;99.90
45339;DHT22;31071;51.478;5.710;2023-05-10T05:57:18;13.20;99.90
45339;DHT22;31071;51.478;5.710;2023-05-10T05:59:50;13.10;99.90
45339;DHT22;31071;51.478;5.710;2023-05-10T06:02:16;13.10;99.90
45339;DHT22;31071;51.478;5.710;2023-05-10T06:04:41;13.10;99.90
45339;DHT22;31071;51.478;5.710;2023-05-10T06:07:07;13.10;99.90
45339;DHT22;31071;51.478;5.710;2023-05-10T06:09:32;13.20;99.90
45339;DHT22;31071;51.478;5.710;2023-05-10T06:11:58;13.30;99.90
45339;DHT22;31071;51.478;5.710;2023-05-10T06:14:23;13.20;99.90
45339;DHT22;31071;51.478;5.710;2023-05-10T06:16:49;13.20;99.90
45339;DHT22;31071;51.478;5.710;2023-05-10T06:19:15;13.20;99.90
45339;DHT22;31071;51.478;5.710;2023-05-10T06:21:40;13.80;99.90
45339;DHT22;31071;51.478;5.710;2023-05-10T06:24:06;13.20;99.90
45339;DHT22;31071;51.478;5.710;2023-05-10T06:26:32;13.30;99.90
45339;DHT22;31071;51.478;5.710;2023-05-10T06:28:58;13.10;99.90
45339;DHT22;31071;51.478;5.710;2023-05-10T06:31:23;13.10;99.90
45339;DHT22;31071;51.478;5.710;2023-05-10T06:33:49;13.10;99.90
45339;DHT22;31071;51.478;5.710;2023-05-10T06:36:14;13.10;99.90
45339;DHT22;31071;51.478;5.710;2023-05-10T06:38:40;13.20;99.90
45339;DHT22;31071;51.478;5.710;2023-05-10T06:41:05;13.20;99.90
45339;DHT22;31071;51.478;5.710;2023-05-10T06:43:31;13.20;99.90
45339;DHT22;31071;51.478;5.710;2023-05-10T06:45:56;13.20;99.90
45339;DHT22;31071;51.478;5.710;2023-05-10T06:48:22;13.30;99.90
45339;DHT22;31071;51.478;5.710;2023-05-10T06:50:48;13.30;99.90
45339;DHT22;31071;51.478;5.710;2023-05-10T06:53:13;13.30;99.90
45339;DHT22;31071;51.478;5.710;2023-05-10T06:55:39;13.30;99.90
45339;DHT22;31071;51.478;5.710;2023-05-10T06:58:04;13.40;99.90
45339;DHT22;31071;51.478;5.710;2023-05-10T07:00:30;13.40;99.90
45339;DHT22;31071;51.478;5.710;2023-05-10T07:02:55;13.40;99.90
45339;DHT22;31071;51.478;5.710;2023-05-10T07:05:21;13.40;99.90
45339;DHT22;31071;51.478;5.710;2023-05-10T07:07:47;13.40;99.90
45339;DHT22;31071;51.478;5.710;2023-05-10T07:10:12;13.40;99.90
45339;DHT22;31071;51.478;5.710;2023-05-10T07:12:38;13.50;99.90
45339;DHT22;31071;51.478;5.710;2023-05-10T07:15:04;13.70;99.90
45339;DHT22;31071;51.478;5.710;2023-05-10T07:17:30;13.50;99.90
45339;DHT22;31071;51.478;5.710;2023-05-10T07:19:56;13.30;99.90
45339;DHT22;31071;51.478;5.710;2023-05-10T07:22:21;13.50;99.90
45339;DHT22;31071;51.478;5.710;2023-05-10T07:24:47;13.50;99.90
45339;DHT22;31071;51.478;5.710;2023-05-10T07:27:12;13.50;99.90
45339;DHT22;31071;51.478;5.710;2023-05-10T07:29:38;13.50;99.90
45339;DHT22;31071;51.478;5.710;2023-05-10T07:32:04;13.60;99.90
45339;DHT22;31071;51.478;5.710;2023-05-10T07:34:30;13.60;99.90
45339;DHT22;31071;51.478;5.710;2023-05-10T07:36:58;13.50;99.90
45339;DHT22;31071;51.478;5.710;2023-05-10T07:39:24;13.50;99.90
45339;DHT22;31071;51.478;5.710;2023-05-10T07:41:49;13.60;99.90
45339;DHT22;31071;51.478;5.710;2023-05-10T07:44:15;13.60;99.90
45339;DHT22;31071;51.478;5.710;2023-05-10T07:46:43;13.70;99.90
45339;DHT22;31071;51.478;5.710;2023-05-10T07:49:09;13.80;99.90
45339;DHT22;31071;51.478;5.710;2023-05-10T07:51:34;13.90;99.90
45339;DHT22;31071;51.478;5.710;2023-05-10T07:54:00;13.90;99.90
45339;DHT22;31071;51.478;5.710;2023-05-10T07:56:29;13.90;99.90
45339;DHT22;31071;51.478;5.710;2023-05-10T07:58:56;13.90;99.90
45339;DHT22;31071;51.478;5.710;2023-05-10T08:01:22;13.80;99.90
45339;DHT22;31071;51.478;5.710;2023-05-10T08:03:48;13.90;99.90
45339;DHT22;31071;51.478;5.710;2023-05-10T08:06:14;13.80;99.90
45339;DHT22;31071;51.478;5.710;2023-05-10T08:08:44;13.80;99.90
45339;DHT22;31071;51.478;5.710;2023-05-10T08:11:16;13.80;99.90
45339;DHT22;31071;51.478;5.710;2023-05-10T08:13:43;13.70;99.90
45339;DHT22;31071;51.478;5.710;2023-05-10T08:16:08;13.80;99.90
45339;DHT22;31071;51.478;5.710;2023-05-10T08:18:34;13.80;99.90
45339;DHT22;31071;51.478;5.710;2023-05-10T08:21:00;13.80;99.90
45339;DHT22;31071;51.478;5.710;2023-05-10T08:23:25;13.90;99.90
45339;DHT22;31071;51.478;5.710;2023-05-10T08:25:51;13.90;99.90
45339;DHT22;31071;51.478;5.710;2023-05-10T08:28:16;13.80;99.90
45339;DHT22;31071;51.478;5.710;2023-05-10T08:30:42;13.80;99.90
45339;DHT22;31071;51.478;5.710;2023-05-10T08:33:11;13.80;99.90
45339;DHT22;31071;51.478;5.710;2023-05-10T08:35:39;13.80;99.90
45339;DHT22;31071;51.478;5.710;2023-05-10T08:38:10;13.60;99.90
45339;DHT22;31071;51.478;5.710;2023-05-10T08:40:37;13.60;99.90
45339;DHT22;31071;51.478;5.710;2023-05-10T08:43:06;13.60;99.90
45339;DHT22;31071;51.478;5.710;2023-05-10T08:45:33;13.50;99.90
45339;DHT22;31071;51.478;5.710;2023-05-10T08:48:02;16.00;99.90
45339;DHT22;31071;51.478;5.710;2023-05-10T08:50:31;13.60;99.90
45339;DHT22;31071;51.478;5.710;2023-05-10T08:53:00;13.60;99.90
45339;DHT22;31071;51.478;5.710;2023-05-10T08:55:26;13.60;99.90
45339;DHT22;31071;51.478;5.710;2023-05-10T08:57:52;13.60;99.90
45339;DHT22;31071;51.478;5.710;2023-05-10T09:00:18;13.60;99.90
45339;DHT22;31071;51.478;5.710;2023-05-10T09:02:44;13.60;99.90
45339;DHT22;31071;51.478;5.710;2023-05-10T09:05:11;13.70;99.90
45339;DHT22;31071;51.478;5.710;2023-05-10T09:07:37;13.80;99.90
45339;DHT22;31071;51.478;5.710;2023-05-10T09:10:04;15.40;99.90
45339;DHT22;31071;51.478;5.710;2023-05-10T09:12:30;13.90;99.90
45339;DHT22;31071;51.478;5.710;2023-05-10T09:14:57;13.90;99.90
45339;DHT22;31071;51.478;5.710;2023-05-10T09:17:25;14.00;99.90
45339;DHT22;31071;51.478;5.710;2023-05-10T09:20:00;14.10;99.90
45339;DHT22;31071;51.478;5.710;2023-05-10T09:22:27;14.20;99.90
45339;DHT22;31071;51.478;5.710;2023-05-10T09:25:04;14.80;99.90
45339;DHT22;31071;51.478;5.710;2023-05-10T09:27:30;14.50;99.90
45339;DHT22;31071;51.478;5.710;2023-05-10T09:29:56;14.00;99.90
45339;DHT22;31071;51.478;5.710;2023-05-10T09:32:21;17.00;99.90
45339;DHT22;31071;51.478;5.710;2023-05-10T09:34:49;14.30;99.90
45339;DHT22;31071;51.478;5.710;2023-05-10T09:37:15;14.40;99.90
45339;DHT22;31071;51.478;5.710;2023-05-10T09:39:40;14.30;99.90
45339;DHT22;31071;51.478;5.710;2023-05-10T09:42:08;14.50;99.90
45339;DHT22;31071;51.478;5.710;2023-05-10T09:45:04;14.60;99.90
45339;DHT22;31071;51.478;5.710;2023-05-10T09:47:32;14.90;99.90
45339;DHT22;31071;51.478;5.710;2023-05-10T09:49:58;16.40;99.90
45339;DHT22;31071;51.478;5.710;2023-05-10T09:52:29;15.70;99.90
45339;DHT22;31071;51.478;5.710;2023-05-10T09:54:55;15.90;99.90
45339;DHT22;31071;51.478;5.710;2023-05-10T09:57:22;16.00;99.90
45339;DHT22;31071;51.478;5.710;2023-05-10T09:59:48;16.20;99.90
45339;DHT22;31071;51.478;5.710;2023-05-10T10:02:15;16.00;99.90
45339;DHT22;31071;51.478;5.710;2023-05-10T10:04:41;15.70;99.90
45339;DHT22;31071;51.478;5.710;2023-05-10T10:07:07;15.60;99.90
45339;DHT22;31071;51.478;5.710;2023-05-10T10:09:34;15.40;99.90
45339;DHT22;31071;51.478;5.710;2023-05-10T10:12:01;15.40;99.90
45339;DHT22;31071;51.478;5.710;2023-05-10T10:14:28;15.50;99.90
45339;DHT22;31071;51.478;5.710;2023-05-10T10:16:54;15.50;99.90
45339;DHT22;31071;51.478;5.710;2023-05-10T10:19:20;15.80;99.90
45339;DHT22;31071;51.478;5.710;2023-05-10T10:21:47;16.50;99.90
45339;DHT22;31071;51.478;5.710;2023-05-10T10:24:12;17.00;99.90
45339;DHT22;31071;51.478;5.710;2023-05-10T10:26:38;16.50;99.90
45339;DHT22;31071;51.478;5.710;2023-05-10T10:34:26;15.90;99.90
45339;DHT22;31071;51.478;5.710;2023-05-10T10:36:54;15.90;99.90
45339;DHT22;31071;51.478;5.710;2023-05-10T10:39:21;17.00;99.90
45339;DHT22;31071;51.478;5.710;2023-05-10T10:41:55;18.60;99.90
45339;DHT22;31071;51.478;5.710;2023-05-10T10:44:36;15.50;99.90
45339;DHT22;31071;51.478;5.710;2023-05-10T10:52:25;15.60;99.90
45339;DHT22;31071;51.478;5.710;2023-05-10T11:00:36;15.70;99.90
45339;DHT22;31071;51.478;5.710;2023-05-10T11:03:11;15.90;99.90
45339;DHT22;31071;51.478;5.710;2023-05-10T11:05:53;16.10;99.90
45339;DHT22;31071;51.478;5.710;2023-05-10T11:08:26;18.40;99.90
45339;DHT22;31071;51.478;5.710;2023-05-10T11:13:32;17.30;99.90
45339;DHT22;31071;51.478;5.710;2023-05-10T11:15:59;18.30;99.90
45339;DHT22;31071;51.478;5.710;2023-05-10T11:18:36;20.50;99.90
45339;DHT22;31071;51.478;5.710;2023-05-10T11:21:03;18.70;99.90
45339;DHT22;31071;51.478;5.710;2023-05-10T11:23:48;18.60;99.90
45339;DHT22;31071;51.478;5.710;2023-05-10T11:26:14;21.30;99.90
45339;DHT22;31071;51.478;5.710;2023-05-10T11:28:44;20.00;99.90
45339;DHT22;31071;51.478;5.710;2023-05-10T11:31:10;19.70;99.90
45339;DHT22;31071;51.478;5.710;2023-05-10T11:33:45;18.70;99.90
45339;DHT22;31071;51.478;5.710;2023-05-10T11:36:13;18.20;99.90
45339;DHT22;31071;51.478;5.710;2023-05-10T11:38:39;18.10;99.90
45339;DHT22;31071;51.478;5.710;2023-05-10T11:41:05;17.80;99.90
45339;DHT22;31071;51.478;5.710;2023-05-10T11:43:30;17.40;99.90
45339;DHT22;31071;51.478;5.710;2023-05-10T11:45:56;17.20;99.90
45339;DHT22;31071;51.478;5.710;2023-05-10T11:48:22;17.20;99.90
45339;DHT22;31071;51.478;5.710;2023-05-10T11:50:49;17.30;99.90
45339;DHT22;31071;51.478;5.710;2023-05-10T11:53:15;17.50;99.90
45339;DHT22;31071;51.478;5.710;2023-05-10T11:55:40;17.60;99.90
45339;DHT22;31071;51.478;5.710;2023-05-10T11:58:06;17.70;99.90
45339;DHT22;31071;51.478;5.710;2023-05-10T12:00:31;17.50;99.90
45339;DHT22;31071;51.478;5.710;2023-05-10T12:02:57;17.80;99.90
45339;DHT22;31071;51.478;5.710;2023-05-10T12:05:24;17.80;99.90
45339;DHT22;31071;51.478;5.710;2023-05-10T12:07:49;19.40;99.90
45339;DHT22;31071;51.478;5.710;2023-05-10T12:10:15;18.10;99.90
45339;DHT22;31071;51.478;5.710;2023-05-10T12:12:44;17.90;99.90
45339;DHT22;31071;51.478;5.710;2023-05-10T12:15:21;18.00;99.90
45339;DHT22;31071;51.478;5.710;2023-05-10T12:17:48;17.90;99.90
45339;DHT22;31071;51.478;5.710;2023-05-10T12:20:15;18.00;99.90
45339;DHT22;31071;51.478;5.710;2023-05-10T12:22:44;18.30;99.90
45339;DHT22;31071;51.478;5.710;2023-05-10T12:25:09;17.70;99.90
45339;DHT22;31071;51.478;5.710;2023-05-10T12:27:35;17.60;99.90
45339;DHT22;31071;51.478;5.710;2023-05-10T12:30:02;17.60;99.90
45339;DHT22;31071;51.478;5.710;2023-05-10T12:32:41;17.60;99.90
45339;DHT22;31071;51.478;5.710;2023-05-10T12:35:07;17.70;99.90
45339;DHT22;31071;51.478;5.710;2023-05-10T12:37:34;17.10;99.90
45339;DHT22;31071;51.478;5.710;2023-05-10T12:40:08;16.60;99.90
45339;DHT22;31071;51.478;5.710;2023-05-10T12:42:35;16.20;99.90
45339;DHT22;31071;51.478;5.710;2023-05-10T12:45:01;15.90;99.90
45339;DHT22;31071;51.478;5.710;2023-05-10T12:47:28;15.70;99.90
45339;DHT22;31071;51.478;5.710;2023-05-10T12:49:53;16.70;99.90
45339;DHT22;31071;51.478;5.710;2023-05-10T12:52:18;15.30;99.90
45339;DHT22;31071;51.478;5.710;2023-05-10T12:54:44;15.30;99.90
45339;DHT22;31071;51.478;5.710;2023-05-10T12:57:09;15.30;99.90
45339;DHT22;31071;51.478;5.710;2023-05-10T12:59:35;15.30;99.90
45339;DHT22;31071;51.478;5.710;2023-05-10T13:02:01;15.20;99.90
45339;DHT22;31071;51.478;5.710;2023-05-10T13:04:26;15.20;99.90
45339;DHT22;31071;51.478;5.710;2023-05-10T13:06:52;15.20;99.90
45339;DHT22;31071;51.478;5.710;2023-05-10T13:09:17;15.00;99.90
45339;DHT22;31071;51.478;5.710;2023-05-10T13:11:43;15.10;99.90
45339;DHT22;31071;51.478;5.710;2023-05-10T13:14:08;15.20;99.90
45339;DHT22;31071;51.478;5.710;2023-05-10T13:16:34;15.30;99.90
45339;DHT22;31071;51.478;5.710;2023-05-10T13:18:59;15.30;99.90
45339;DHT22;31071;51.478;5.710;2023-05-10T13:21:25;15.30;99.90
45339;DHT22;31071;51.478;5.710;2023-05-10T13:23:50;15.40;99.90
45339;DHT22;31071;51.478;5.710;2023-05-10T13:26:16;15.50;99.90
45339;DHT22;31071;51.478;5.710;2023-05-10T13:28:42;15.70;99.90
45339;DHT22;31071;51.478;5.710;2023-05-10T13:31:07;15.80;99.90
45339;DHT22;31071;51.478;5.710;2023-05-10T13:33:33;16.20;99.90
45339;DHT22;31071;51.478;5.710;2023-05-10T13:35:58;16.10;99.90
45339;DHT22;31071;51.478;5.710;2023-05-10T13:38:24;17.30;99.90
45339;DHT22;31071;51.478;5.710;2023-05-10T13:40:50;16.20;99.90
45339;DHT22;31071;51.478;5.710;2023-05-10T13:43:18;16.30;99.90
45339;DHT22;31071;51.478;5.710;2023-05-10T13:45:43;16.20;99.90
45339;DHT22;31071;51.478;5.710;2023-05-10T13:48:09;16.20;99.90
45339;DHT22;31071;51.478;5.710;2023-05-10T13:50:34;16.20;99.90
45339;DHT22;31071;51.478;5.710;2023-05-10T13:53:00;16.10;99.90
45339;DHT22;31071;51.478;5.710;2023-05-10T13:55:25;16.10;99.90
45339;DHT22;31071;51.478;5.710;2023-05-10T13:57:51;16.20;99.90
45339;DHT22;31071;51.478;5.710;2023-05-10T14:00:19;16.10;99.90
45339;DHT22;31071;51.478;5.710;2023-05-10T14:02:45;16.00;99.90
45339;DHT22;31071;51.478;5.710;2023-05-10T14:09:10;15.70;99.90
45339;DHT22;31071;51.478;5.710;2023-05-10T14:11:36;15.50;99.90
45339;DHT22;31071;51.478;5.710;2023-05-10T14:14:01;15.30;99.90
45339;DHT22;31071;51.478;5.710;2023-05-10T14:16:27;16.30;99.90
45339;DHT22;31071;51.478;5.710;2023-05-10T14:18:53;15.50;99.90
45339;DHT22;31071;51.478;5.710;2023-05-10T14:21:19;15.40;99.90
45339;DHT22;31071;51.478;5.710;2023-05-10T14:23:44;15.30;99.90
45339;DHT22;31071;51.478;5.710;2023-05-10T14:26:10;15.30;99.90
45339;DHT22;31071;51.478;5.710;2023-05-10T14:28:36;15.20;99.90
45339;DHT22;31071;51.478;5.710;2023-05-10T14:31:01;15.10;99.90
45339;DHT22;31071;51.478;5.710;2023-05-10T14:33:27;15.00;99.90
45339;DHT22;31071;51.478;5.710;2023-05-10T14:35:54;15.00;99.90
45339;DHT22;31071;51.478;5.710;2023-05-10T14:38:21;15.00;99.90
45339;DHT22;31071;51.478;5.710;2023-05-10T14:40:47;14.80;99.90
45339;DHT22;31071;51.478;5.710;2023-05-10T14:43:12;14.80;99.90
45339;DHT22;31071;51.478;5.710;2023-05-10T14:45:38;14.70;99.90
45339;DHT22;31071;51.478;5.710;2023-05-10T14:48:03;14.60;99.90
45339;DHT22;31071;51.478;5.710;2023-05-10T14:50:30;14.50;99.90
45339;DHT22;31071;51.478;5.710;2023-05-10T14:52:57;14.50;99.90
45339;DHT22;31071;51.478;5.710;2023-05-10T14:55:22;14.40;99.90
45339;DHT22;31071;51.478;5.710;2023-05-10T14:57:48;14.30;99.90
45339;DHT22;31071;51.478;5.710;2023-05-10T15:00:15;14.30;99.90
45339;DHT22;31071;51.478;5.710;2023-05-10T15:02:41;14.20;99.90
45339;DHT22;31071;51.478;5.710;2023-05-10T15:05:07;14.20;99.90
45339;DHT22;31071;51.478;5.710;2023-05-10T15:07:53;14.20;99.90
45339;DHT22;31071;51.478;5.710;2023-05-10T15:10:19;14.20;99.90
45339;DHT22;31071;51.478;5.710;2023-05-10T15:12:44;14.30;99.90
45339;DHT22;31071;51.478;5.710;2023-05-10T15:15:10;14.50;99.90
45339;DHT22;31071;51.478;5.710;2023-05-10T15:17:35;14.50;99.90
45339;DHT22;31071;51.478;5.710;2023-05-10T15:20:01;14.60;99.90
45339;DHT22;31071;51.478;5.710;2023-05-10T15:22:30;14.60;99.90
45339;DHT22;31071;51.478;5.710;2023-05-10T15:24:57;14.60;99.90
45339;DHT22;31071;51.478;5.710;2023-05-10T15:27:23;14.60;99.90
45339;DHT22;31071;51.478;5.710;2023-05-10T15:29:48;15.40;99.90
45339;DHT22;31071;51.478;5.710;2023-05-10T15:32:14;14.70;99.90
45339;DHT22;31071;51.478;5.710;2023-05-10T15:34:39;14.60;99.90
45339;DHT22;31071;51.478;5.710;2023-05-10T15:37:05;14.60;99.90
45339;DHT22;31071;51.478;5.710;2023-05-10T15:39:31;16.30;99.90
45339;DHT22;31071;51.478;5.710;2023-05-10T15:41:56;14.60;99.90
45339;DHT22;31071;51.478;5.710;2023-05-10T15:44:22;14.50;99.90
45339;DHT22;31071;51.478;5.710;2023-05-10T15:46:48;14.60;99.90
45339;DHT22;31071;51.478;5.710;2023-05-10T15:49:13;14.80;99.90
45339;DHT22;31071;51.478;5.710;2023-05-10T15:51:39;15.40;99.90
45339;DHT22;31071;51.478;5.710;2023-05-10T15:54:05;17.50;99.90
45339;DHT22;31071;51.478;5.710;2023-05-10T15:56:32;15.30;99.90
45339;DHT22;31071;51.478;5.710;2023-05-10T15:58:58;14.60;99.90
45339;DHT22;31071;51.478;5.710;2023-05-10T16:01:23;14.50;99.90
45339;DHT22;31071;51.478;5.710;2023-05-10T16:03:49;14.40;99.90
45339;DHT22;31071;51.478;5.710;2023-05-10T16:06:15;14.40;99.90